JOPM7: Shoal Creek, Joplin, MO

Data processed at Mon 03Oct2022 03:55 GMT


All information presented herein is the property of the government of the United States of America and may be revised or deleted at any time without prior notice.
Dissemination of this information without the expressed written consent of the Public Affairs Office, Tulsa District U.S. Army Corps of Engineers is strictly prohibited.
These data are gathered electronically and, as presented, have not undergone any form of quality control. These data are not guaranteed to be valid or correct.
Go to home page.
Go to station list.

Downstream station:


Previous Day
Next Day
Current Day


                            
SHEF ID:       JOPM7     Shoal Creek above Joplin, MO
STATION TYPE:  
Regulating: Stage =    10.00, Flow =     6333

               PRECIP     STAGE  RIV-FLOW  BAT-LOAD
                   in        ft       cfs      volt
              Ccp-Rev   Ccp-Rev   Ccp-Rev   Ccp-Rev
(US/Central)
10/02 00:00      0.00      1.82       115     12.54
10/02 01:00      0.00      1.83       118     12.54
10/02 02:00      0.00      1.83       118     12.54
10/02 03:00      0.00      1.83       118     12.48
10/02 04:00      0.00      1.82       115     12.48
10/02 05:00      0.00      1.84       121     12.48
10/02 06:00      0.00      1.83       118     12.42
10/02 07:00      0.00      1.84       121     12.42
10/02 08:00      0.00      1.84       121     12.42
10/02 09:00      0.00      1.84       121     12.65
10/02 10:00      0.00      1.85       123     13.48
10/02 11:00      0.00      1.84       121     14.12
10/02 12:00      0.00      1.82       115     13.65
10/02 13:00      0.00      1.84       121     13.59
10/02 14:00      0.00      1.81       113     13.42
10/02 15:00      0.00      1.81       113     13.30
10/02 16:00      0.00      1.81       113     13.18
10/02 17:00      0.00      1.81       113     13.12
10/02 18:00      0.00      1.81       113     13.12
10/02 19:00      0.00      1.81       113     12.65
10/02 20:00      0.00      1.80       110     12.65
10/02 21:00      0.00      1.79       108     12.60
10/02 22:00      0.00      1.79       108     12.60
10/02 23:00      ----      ----      ----      ----